Time;durP1;ratioP1;P1;durP2;ratioP2;P2;SDS_P1;SDS_P2;PMS_P1;PMS_P2;Temp;Humidity;BMP_temperature;BMP_pressure;BME280_temperature;BME280_humidity;BME280_pressure;Samples;Min_cycle;Max_cycle;Signal;HPM_P1;HPM_P2
2021/12/25 07:06:15;;;;;;;15.73;12.43;;;8.70;99.90;;;;;;6107156;23;20519;-89
2021/12/25 07:08:41;;;;;;;14.93;11.93;;;8.70;99.90;;;;;;6124889;23;20049;-90
2021/12/25 07:11:06;;;;;;;15.02;11.77;;;8.70;99.90;;;;;;6125767;23;20089;-89
2021/12/25 07:13:32;;;;;;;14.00;11.40;;;9.30;99.90;;;;;;6125496;23;20009;-88
2021/12/25 07:15:57;;;;;;;15.48;11.55;;;9.10;99.90;;;;;;6126588;23;20009;-89
2021/12/25 07:18:23;;;;;;;15.93;11.10;;;8.90;99.90;;;;;;6125945;23;20341;-89
2021/12/25 07:20:50;;;;;;;14.82;11.13;;;9.40;99.90;;;;;;6100244;23;20002;-89
2021/12/25 07:23:16;;;;;;;14.48;11.48;;;9.40;99.90;;;;;;6125813;23;20017;-89
2021/12/25 07:25:42;;;;;;;15.32;11.07;;;9.30;99.90;;;;;;6099568;23;20006;-89
2021/12/25 07:28:08;;;;;;;15.45;11.30;;;9.40;99.90;;;;;;6125994;23;19998;-89
2021/12/25 07:30:34;;;;;;;16.70;11.65;;;9.00;99.90;;;;;;6100327;23;20014;-88
2021/12/25 07:33:00;;;;;;;14.88;11.68;;;9.20;99.90;;;;;;6125745;23;20077;-88
2021/12/25 07:35:27;;;;;;;13.35;11.25;;;9.50;99.90;;;;;;6099855;23;20006;-88
2021/12/25 07:37:53;;;;;;;15.27;11.68;;;9.60;99.90;;;;;;6125447;23;20018;-88
2021/12/25 07:40:18;;;;;;;14.85;11.30;;;9.40;99.90;;;;;;6125428;23;20037;-88
2021/12/25 07:42:44;;;;;;;16.55;12.57;;;9.10;99.90;;;;;;6126154;23;20436;-88
2021/12/25 07:45:11;;;;;;;15.02;12.00;;;9.20;99.90;;;;;;6125408;23;20009;-89
2021/12/25 07:47:40;;;;;;;14.77;12.15;;;9.60;99.90;;;;;;6125450;23;20111;-88
2021/12/25 07:50:09;;;;;;;13.10;11.40;;;9.30;99.90;;;;;;6099312;23;20081;-88
2021/12/25 07:52:34;;;;;;;14.90;11.48;;;9.10;99.90;;;;;;6125067;23;20557;-88
2021/12/25 07:55:00;;;;;;;14.20;11.73;;;9.10;99.90;;;;;;6125738;23;19997;-88
2021/12/25 07:57:26;;;;;;;13.45;10.38;;;9.60;99.90;;;;;;6125682;23;20017;-88
2021/12/25 07:59:51;;;;;;;14.60;10.80;;;9.50;99.90;;;;;;6099796;23;20010;-88
2021/12/25 08:02:17;;;;;;;15.90;11.57;;;9.90;99.90;;;;;;6125772;23;20006;-88
2021/12/25 08:04:42;;;;;;;13.73;10.70;;;9.50;99.90;;;;;;6099281;23;20028;-88
2021/12/25 08:07:08;;;;;;;15.40;11.23;;;9.60;99.90;;;;;;6124834;23;20018;-88
2021/12/25 08:09:35;;;;;;;13.60;11.32;;;9.50;99.90;;;;;;6125540;23;20009;-88
2021/12/25 08:12:02;;;;;;;13.90;10.70;;;9.50;99.90;;;;;;6125300;23;20006;-89
2021/12/25 08:14:29;;;;;;;15.38;11.65;;;9.40;99.90;;;;;;6125515;23;20057;-89
2021/12/25 08:16:58;;;;;;;14.80;11.20;;;9.40;99.90;;;;;;6099246;23;20353;-88
2021/12/25 08:19:24;;;;;;;13.60;11.13;;;9.60;99.90;;;;;;6126111;23;20016;-88
2021/12/25 08:21:50;;;;;;;14.25;12.00;;;9.60;99.90;;;;;;6098955;23;20032;-89
2021/12/25 08:24:18;;;;;;;27.00;13.82;;;9.70;99.90;;;;;;6125593;23;20012;-88
2021/12/25 08:26:45;;;;;;;16.65;12.13;;;9.30;99.90;;;;;;6125651;23;20009;-89
2021/12/25 08:29:11;;;;;;;15.63;11.48;;;9.40;99.90;;;;;;6125814;23;20041;-89
2021/12/25 08:31:37;;;;;;;16.50;11.52;;;9.30;99.90;;;;;;6099595;23;20064;-89
2021/12/25 08:34:04;;;;;;;15.55;11.48;;;9.40;99.90;;;;;;6099704;23;20002;-91
2021/12/25 08:36:29;;;;;;;14.45;10.93;;;9.40;99.90;;;;;;6125262;23;20397;-90
2021/12/25 08:38:55;;;;;;;13.75;11.35;;;9.40;99.90;;;;;;6125888;23;20037;-89
2021/12/25 08:41:25;;;;;;;13.98;10.88;;;9.90;99.90;;;;;;6125692;23;20377;-89
2021/12/25 08:43:57;;;;;;;15.20;10.90;;;9.70;99.90;;;;;;6099559;23;20010;-89
2021/12/25 08:46:42;;;;;;;15.70;10.85;;;9.50;99.90;;;;;;6100034;23;20429;-92
2021/12/25 08:49:08;;;;;;;14.20;10.73;;;9.60;99.90;;;;;;6125349;23;20010;-89
2021/12/25 08:51:34;;;;;;;13.88;10.52;;;10.20;99.90;;;;;;6099056;23;20002;-89
2021/12/25 08:54:00;;;;;;;12.73;10.25;;;9.50;99.90;;;;;;6099204;23;20017;-88
2021/12/25 08:56:27;;;;;;;12.23;10.13;;;9.50;99.90;;;;;;6124769;23;20012;-90
2021/12/25 08:58:53;;;;;;;12.93;10.27;;;9.90;99.90;;;;;;6099180;23;20068;-89
2021/12/25 09:01:19;;;;;;;13.77;10.30;;;9.30;99.90;;;;;;6099514;23;20014;-89
2021/12/25 09:03:44;;;;;;;14.23;11.52;;;9.40;99.90;;;;;;6098531;23;20013;-90
2021/12/25 09:06:10;;;;;;;15.73;11.27;;;9.40;99.90;;;;;;6124388;23;20025;-92
2021/12/25 09:08:36;;;;;;;14.80;10.60;;;9.40;99.90;;;;;;6124403;23;20013;-91
2021/12/25 09:11:02;;;;;;;14.00;11.40;;;9.60;99.90;;;;;;6123681;23;20005;-90
2021/12/25 09:13:27;;;;;;;17.48;12.23;;;9.40;99.90;;;;;;6125050;23;20013;-89
2021/12/25 09:15:53;;;;;;;16.13;11.93;;;9.60;99.90;;;;;;6125233;23;20006;-89
2021/12/25 09:18:19;;;;;;;14.73;11.48;;;9.20;99.90;;;;;;6124245;23;20009;-92
2021/12/25 09:20:44;;;;;;;13.35;10.60;;;9.50;99.90;;;;;;6097884;23;20013;-89
2021/12/25 09:23:10;;;;;;;12.45;10.18;;;9.90;99.90;;;;;;6124268;23;20013;-88
2021/12/25 09:25:36;;;;;;;12.93;10.02;;;9.50;99.90;;;;;;6125289;23;20017;-87
2021/12/25 09:28:02;;;;;;;13.32;10.65;;;9.70;99.90;;;;;;6098743;23;20037;-87
2021/12/25 09:30:28;;;;;;;14.25;10.55;;;9.90;99.90;;;;;;6124065;23;20002;-87
2021/12/25 09:32:53;;;;;;;12.68;10.00;;;10.00;99.90;;;;;;6122704;23;20002;-90
2021/12/25 09:35:20;;;;;;;12.85;10.05;;;10.60;99.90;;;;;;6097742;23;20017;-88
2021/12/25 09:37:45;;;;;;;12.88;9.77;;;10.20;99.90;;;;;;6098943;23;20014;-89
2021/12/25 09:40:12;;;;;;;16.20;10.70;;;10.70;99.90;;;;;;6124752;23;20009;-89
2021/12/25 09:42:40;;;;;;;13.48;9.95;;;10.50;99.90;;;;;;6124646;23;20069;-90
2021/12/25 09:45:07;;;;;;;13.23;10.43;;;10.70;99.90;;;;;;6124911;23;20013;-89
2021/12/25 09:47:33;;;;;;;14.70;9.57;;;10.90;99.90;;;;;;6124435;23;20036;-89
2021/12/25 09:49:59;;;;;;;13.18;9.75;;;10.90;99.90;;;;;;6125633;23;20329;-90
2021/12/25 09:52:24;;;;;;;10.70;9.40;;;10.90;99.90;;;;;;6125845;23;20013;-88
2021/12/25 09:54:50;;;;;;;11.35;8.95;;;10.90;99.90;;;;;;6126647;23;20373;-89
2021/12/25 09:57:16;;;;;;;12.05;9.70;;;10.80;99.90;;;;;;6126187;23;20072;-89
2021/12/25 09:59:42;;;;;;;13.27;8.85;;;11.00;99.90;;;;;;6126941;23;20061;-89
2021/12/25 10:02:14;;;;;;;11.48;9.05;;;11.20;99.90;;;;;;6126296;23;20440;-87
2021/12/25 10:04:49;;;;;;;12.00;8.65;;;11.30;99.90;;;;;;6100904;23;20452;-88
2021/12/25 10:07:29;;;;;;;10.27;7.78;;;11.10;99.90;;;;;;6125919;23;20014;-88
2021/12/25 10:10:10;;;;;;;9.57;8.10;;;10.80;99.90;;;;;;6126950;23;20006;-90
2021/12/25 10:12:40;;;;;;;9.80;8.00;;;10.70;99.90;;;;;;6126883;23;20017;-90
2021/12/25 10:15:09;;;;;;;10.50;7.57;;;10.80;99.90;;;;;;6099658;23;20041;-90
2021/12/25 10:17:44;;;;;;;10.05;7.30;;;10.80;99.90;;;;;;6125931;23;20460;-90
2021/12/25 10:20:20;;;;;;;9.10;7.47;;;10.80;99.90;;;;;;6100959;23;20061;-88
2021/12/25 10:23:08;;;;;;;10.00;7.63;;;10.80;99.90;;;;;;6126386;23;20018;-88
2021/12/25 10:25:49;;;;;;;9.95;6.95;;;10.80;99.90;;;;;;6125999;23;20451;-88
2021/12/25 10:28:18;;;;;;;6.82;6.10;;;10.80;99.90;;;;;;6126219;23;20001;-88
2021/12/25 10:30:53;;;;;;;8.55;6.22;;;11.00;99.90;;;;;;6125918;23;20376;-87
2021/12/25 10:33:44;;;;;;;7.18;5.18;;;11.00;99.90;;;;;;6100561;23;20369;-88
2021/12/25 10:36:25;;;;;;;7.15;5.97;;;11.00;99.90;;;;;;6109144;23;20064;-87
2021/12/25 10:39:18;;;;;;;10.80;7.40;;;11.10;99.90;;;;;;6126134;23;20018;-88
2021/12/25 10:41:52;;;;;;;8.68;6.43;;;11.10;99.90;;;;;;6126331;23;20002;-88
2021/12/25 10:44:19;;;;;;;9.85;6.80;;;11.10;99.90;;;;;;6126213;23;20006;-90
2021/12/25 10:46:51;;;;;;;9.90;7.65;;;11.20;99.90;;;;;;6099707;23;20436;-90
2021/12/25 10:49:17;;;;;;;10.10;8.05;;;11.00;99.90;;;;;;6126007;23;20002;-88
2021/12/25 10:51:43;;;;;;;10.73;7.38;;;11.10;99.90;;;;;;6100550;23;20006;-87
2021/12/25 10:54:12;;;;;;;11.07;8.00;;;11.10;99.90;;;;;;6125816;23;20033;-88
2021/12/25 10:56:39;;;;;;;12.68;7.82;;;11.20;99.90;;;;;;6125412;23;20009;-87
2021/12/25 10:59:07;;;;;;;11.95;9.18;;;11.30;99.90;;;;;;6126008;23;20012;-86
2021/12/25 11:01:48;;;;;;;9.77;7.90;;;11.40;99.90;;;;;;6125572;23;20290;-88
2021/12/25 11:04:36;;;;;;;11.02;7.30;;;11.50;99.90;;;;;;6126017;23;20038;-89
2021/12/25 11:07:15;;;;;;;12.43;8.13;;;11.40;99.90;;;;;;6099922;23;20032;-89
2021/12/25 11:10:11;;;;;;;12.13;7.63;;;11.50;99.90;;;;;;6125982;23;20050;-86
2021/12/25 11:12:37;;;;;;;11.30;7.70;;;11.70;99.90;;;;;;6125666;23;20009;-85
2021/12/25 11:15:12;;;;;;;17.70;11.63;;;11.90;99.90;;;;;;6124856;23;20001;-86
2021/12/25 11:17:40;;;;;;;16.42;11.07;;;12.00;99.90;;;;;;6125645;23;20017;-85
2021/12/25 11:20:08;;;;;;;14.30;11.23;;;12.40;99.90;;;;;;6126153;23;20006;-85
2021/12/25 11:22:52;;;;;;;19.40;12.57;;;11.80;99.90;;;;;;6125634;23;20025;-85
2021/12/25 11:25:21;;;;;;;17.98;12.77;;;11.70;99.90;;;;;;6099216;23;20343;-86
2021/12/25 11:27:48;;;;;;;17.60;13.15;;;11.60;99.90;;;;;;6125580;23;20016;-85
2021/12/25 11:30:14;;;;;;;16.88;12.88;;;11.80;99.90;;;;;;6125530;23;20001;-85
2021/12/25 11:32:40;;;;;;;18.92;12.70;;;11.70;99.90;;;;;;6125378;23;20033;-87
2021/12/25 11:35:06;;;;;;;16.58;12.32;;;11.60;99.90;;;;;;6099465;23;20441;-87
2021/12/25 11:37:32;;;;;;;15.02;11.90;;;11.50;99.90;;;;;;6125981;23;20062;-85
2021/12/25 11:39:58;;;;;;;17.48;12.13;;;11.40;99.90;;;;;;6125301;23;20452;-86
2021/12/25 11:42:26;;;;;;;17.80;12.75;;;11.80;99.90;;;;;;6125238;23;20021;-88
2021/12/25 11:44:54;;;;;;;14.88;11.48;;;11.40;99.90;;;;;;6125108;23;20009;-85
2021/12/25 11:47:41;;;;;;;13.65;11.02;;;11.50;99.90;;;;;;6126241;23;20062;-85
2021/12/25 11:50:15;;;;;;;13.90;10.48;;;11.50;99.90;;;;;;6125058;23;20536;-90
2021/12/25 11:52:50;;;;;;;14.57;12.30;;;11.50;99.90;;;;;;6125441;23;20006;-88
2021/12/25 11:58:21;;;;;;;14.63;12.25;;;11.40;99.90;;;;;;6124721;23;20033;-88
2021/12/25 12:00:51;;;;;;;15.48;12.30;;;11.20;99.90;;;;;;6124955;23;20006;-90
2021/12/25 12:03:35;;;;;;;15.73;12.63;;;11.20;99.90;;;;;;6099303;23;20034;-84
2021/12/25 12:06:01;;;;;;;16.45;12.27;;;11.20;99.90;;;;;;6114438;23;20073;-86
2021/12/25 12:08:26;;;;;;;16.70;12.15;;;11.30;99.90;;;;;;6125854;23;20013;-86
2021/12/25 12:10:59;;;;;;;16.85;13.10;;;11.40;99.90;;;;;;6124775;23;20459;-87
2021/12/25 12:13:31;;;;;;;19.30;14.48;;;11.40;99.90;;;;;;6124657;23;20035;-87
2021/12/25 12:16:02;;;;;;;19.33;15.38;;;11.30;99.90;;;;;;6124974;23;20002;-87
2021/12/25 12:18:32;;;;;;;15.77;12.27;;;11.40;99.90;;;;;;6124820;23;20017;-87
2021/12/25 12:21:23;;;;;;;16.73;12.60;;;11.30;99.90;;;;;;6125387;23;20061;-86
2021/12/25 12:26:45;;;;;;;16.63;13.63;;;11.40;99.90;;;;;;6125584;23;20006;-92
2021/12/25 12:29:14;;;;;;;16.77;11.32;;;11.50;99.90;;;;;;6124968;23;20071;-88
2021/12/25 12:31:47;;;;;;;14.02;10.10;;;11.40;99.90;;;;;;6099010;23;20002;-89
2021/12/25 12:34:33;;;;;;;13.45;8.80;;;12.00;99.90;;;;;;6128115;23;20002;-93
2021/12/25 12:37:14;;;;;;;9.35;7.53;;;11.60;99.90;;;;;;6132834;23;20025;-95
2021/12/25 12:40:05;;;;;;;9.90;7.00;;;11.80;99.90;;;;;;6126360;23;20032;-91
2021/12/25 12:42:40;;;;;;;9.23;6.95;;;12.10;99.90;;;;;;6125678;23;20002;-91
2021/12/25 12:45:21;;;;;;;8.98;6.80;;;12.20;99.90;;;;;;6125894;23;20016;-88
2021/12/25 12:48:09;;;;;;;9.95;7.13;;;12.30;99.90;;;;;;6126262;23;19998;-96
2021/12/25 12:50:37;;;;;;;10.07;7.25;;;12.50;99.90;;;;;;6126003;23;20606;-90
2021/12/25 12:53:07;;;;;;;8.38;6.70;;;13.00;99.90;;;;;;6126621;23;20006;-86
2021/12/25 12:55:35;;;;;;;7.15;6.05;;;13.50;99.90;;;;;;6099480;23;20037;-87
2021/12/25 12:58:09;;;;;;;9.52;6.22;;;13.40;99.90;;;;;;6124834;23;20069;-88
2021/12/25 13:00:36;;;;;;;9.18;5.72;;;13.90;99.90;;;;;;6125339;23;19998;-87
2021/12/25 13:03:03;;;;;;;9.18;5.70;;;14.10;99.90;;;;;;6124923;23;20029;-87
2021/12/25 13:05:41;;;;;;;8.38;5.95;;;14.30;99.90;;;;;;6123922;23;20025;-85
2021/12/25 13:08:23;;;;;;;8.95;5.90;;;14.50;99.90;;;;;;6124562;23;20009;-85
2021/12/25 13:13:20;;;;;;;7.32;5.88;;;14.50;99.90;;;;;;6125099;23;20353;-87
2021/12/25 13:15:49;;;;;;;9.30;5.97;;;14.50;99.90;;;;;;6125145;23;20069;-86
2021/12/25 13:18:16;;;;;;;7.15;5.85;;;14.60;99.90;;;;;;6099064;23;20017;-88
2021/12/25 13:20:51;;;;;;;6.32;5.50;;;14.50;99.90;;;;;;6124151;23;20370;-84
2021/12/25 13:23:21;;;;;;;7.85;5.80;;;14.50;99.90;;;;;;6123924;23;20012;-88
2021/12/25 13:25:51;;;;;;;6.80;5.00;;;14.50;99.90;;;;;;6123834;23;20053;-87
2021/12/25 13:28:17;;;;;;;7.78;6.35;;;14.30;99.90;;;;;;6124662;23;20058;-88
2021/12/25 13:30:47;;;;;;;6.80;5.47;;;13.90;99.90;;;;;;6124563;23;20033;-86
2021/12/25 13:33:16;;;;;;;8.63;5.85;;;13.60;99.90;;;;;;6124744;23;20345;-87
2021/12/25 13:35:42;;;;;;;7.63;6.28;;;13.50;99.90;;;;;;6125501;23;20038;-93
2021/12/25 13:38:09;;;;;;;8.02;6.05;;;13.40;99.90;;;;;;6127596;23;20025;-90
2021/12/25 13:40:37;;;;;;;5.97;5.38;;;13.50;99.90;;;;;;6124362;23;20010;-89
2021/12/25 13:43:06;;;;;;;6.03;5.05;;;14.20;99.90;;;;;;6127743;23;20010;-92
2021/12/25 13:45:31;;;;;;;6.28;5.45;;;14.70;99.90;;;;;;6128358;23;20057;-88
2021/12/25 13:47:57;;;;;;;6.25;5.13;;;15.30;99.90;;;;;;6124447;23;20033;-88
2021/12/25 13:50:23;;;;;;;5.82;5.22;;;15.70;99.90;;;;;;6124821;23;20006;-87
2021/12/25 13:52:58;;;;;;;6.60;5.82;;;15.80;99.90;;;;;;6124569;23;20012;-85
2021/12/25 13:55:28;;;;;;;8.77;5.65;;;15.80;99.90;;;;;;6125088;23;20344;-95
2021/12/25 13:57:53;;;;;;;6.65;5.32;;;15.60;99.90;;;;;;6099370;23;20066;-89
2021/12/25 14:00:26;;;;;;;6.20;5.25;;;15.90;99.90;;;;;;6124977;23;20002;-95
2021/12/25 14:02:56;;;;;;;8.57;5.70;;;15.70;99.90;;;;;;6124785;23;20085;-88
2021/12/25 14:05:24;;;;;;;8.10;6.38;;;15.60;99.90;;;;;;6124762;23;20002;-88
2021/12/25 14:07:50;;;;;;;6.70;5.90;;;15.80;99.90;;;;;;6124520;23;20010;-88
2021/12/25 14:10:18;;;;;;;10.20;6.18;;;15.80;99.90;;;;;;6124545;23;20013;-89
2021/12/25 14:12:53;;;;;;;9.48;7.13;;;15.50;99.90;;;;;;6125011;23;20031;-91
2021/12/25 14:15:24;;;;;;;10.15;6.18;;;15.30;99.90;;;;;;6124391;23;20016;-86
2021/12/25 14:17:50;;;;;;;8.20;6.28;;;15.30;99.90;;;;;;6125490;23;20340;-89
2021/12/25 14:20:28;;;;;;;6.43;5.80;;;15.20;99.90;;;;;;6098252;23;20368;-88
2021/12/25 14:23:10;;;;;;;6.50;5.80;;;15.20;99.90;;;;;;6097634;23;20488;-86
2021/12/25 14:25:38;;;;;;;7.72;5.97;;;15.10;99.90;;;;;;6123762;23;20464;-88
2021/12/25 14:28:21;;;;;;;7.10;5.82;;;14.80;99.90;;;;;;6126097;23;20009;-88
2021/12/25 14:31:25;;;;;;;6.88;6.00;;;14.40;99.90;;;;;;6125231;23;20035;-92
2021/12/25 14:34:03;;;;;;;7.85;6.05;;;14.00;99.90;;;;;;5979433;23;20004;-89
2021/12/25 14:36:36;;;;;;;8.10;6.60;;;13.70;99.90;;;;;;5981393;24;20012;-90
2021/12/25 14:39:23;;;;;;;6.95;6.10;;;13.50;99.90;;;;;;5957649;24;20091;-94
2021/12/25 14:42:09;;;;;;;8.02;6.43;;;13.20;99.90;;;;;;5984146;23;20095;-96
2021/12/25 14:44:35;;;;;;;9.15;6.40;;;13.00;99.90;;;;;;5961333;24;20069;-94
2021/12/25 14:47:24;;;;;;;8.52;6.10;;;13.00;99.90;;;;;;5960964;23;20435;-93
2021/12/25 14:49:50;;;;;;;8.25;5.90;;;13.00;99.90;;;;;;5983705;23;20467;-92
2021/12/25 14:52:36;;;;;;;8.65;5.90;;;13.00;99.90;;;;;;5985653;24;20024;-96
2021/12/25 14:55:16;;;;;;;7.68;6.38;;;12.90;99.90;;;;;;5958727;24;20107;-91
2021/12/25 14:57:42;;;;;;;7.43;5.95;;;12.60;99.90;;;;;;5980812;24;20020;-89
2021/12/25 15:00:08;;;;;;;8.90;6.00;;;12.50;99.90;;;;;;5980568;23;20015;-88
2021/12/25 15:02:34;;;;;;;7.53;6.15;;;12.20;99.90;;;;;;5979831;24;20008;-90
2021/12/25 15:04:59;;;;;;;7.43;5.63;;;12.30;99.90;;;;;;6077049;23;20061;-88
2021/12/25 15:07:25;;;;;;;7.55;6.15;;;12.20;99.90;;;;;;6125535;23;20032;-89
2021/12/25 15:09:55;;;;;;;9.35;6.50;;;11.90;99.90;;;;;;6126375;23;20077;-90
2021/12/25 15:12:32;;;;;;;7.95;6.85;;;11.70;99.90;;;;;;6125785;23;20005;-90
2021/12/25 15:15:12;;;;;;;8.15;7.15;;;11.70;99.90;;;;;;6099643;23;20006;-93
2021/12/25 15:17:42;;;;;;;7.68;5.97;;;11.80;99.90;;;;;;6125761;23;20050;-90
2021/12/25 15:20:12;;;;;;;8.90;6.22;;;11.60;99.90;;;;;;6125145;23;20029;-88
2021/12/25 15:22:40;;;;;;;7.25;6.25;;;11.30;99.90;;;;;;6126013;23;20013;-89
2021/12/25 15:25:09;;;;;;;12.55;7.85;;;11.40;99.90;;;;;;6099605;23;20005;-86
2021/12/25 15:27:37;;;;;;;7.97;6.30;;;11.30;99.90;;;;;;6125456;23;20014;-90
2021/12/25 15:30:14;;;;;;;9.00;6.53;;;11.30;99.90;;;;;;6126003;23;20318;-88
2021/12/25 15:32:49;;;;;;;9.00;6.28;;;11.10;99.90;;;;;;6100411;23;20017;-87
2021/12/25 15:35:20;;;;;;;6.80;6.10;;;11.20;99.90;;;;;;6125584;23;20002;-88
2021/12/25 15:37:48;;;;;;;8.68;6.55;;;11.30;99.90;;;;;;6125765;23;20093;-86
2021/12/25 15:40:23;;;;;;;7.45;6.63;;;11.30;99.90;;;;;;6099009;23;20058;-85
2021/12/25 15:42:50;;;;;;;9.38;6.63;;;11.20;99.90;;;;;;6126122;23;20006;-90
2021/12/25 15:45:16;;;;;;;10.48;6.22;;;11.30;99.90;;;;;;6124928;23;20006;-89
2021/12/25 15:47:44;;;;;;;10.32;6.60;;;11.30;99.90;;;;;;6100251;23;20006;-92
2021/12/25 15:50:13;;;;;;;8.57;6.50;;;11.30;99.90;;;;;;6099434;23;20041;-89
2021/12/25 15:52:39;;;;;;;8.25;6.28;;;11.40;99.90;;;;;;6125912;23;20006;-90
2021/12/25 15:55:06;;;;;;;8.65;6.75;;;11.30;99.90;;;;;;6100353;23;20017;-87
2021/12/25 15:57:34;;;;;;;8.13;6.65;;;11.40;99.90;;;;;;6125795;23;20021;-91
2021/12/25 16:00:00;;;;;;;9.18;6.90;;;11.40;99.90;;;;;;6127180;23;20002;-93
2021/12/25 16:02:27;;;;;;;9.70;8.15;;;11.30;99.90;;;;;;6127714;23;20108;-90
2021/12/25 16:04:54;;;;;;;7.78;6.82;;;11.30;99.90;;;;;;6126820;23;20025;-93
2021/12/25 16:07:20;;;;;;;10.27;6.95;;;11.30;99.90;;;;;;6101648;23;20026;-93
2021/12/25 16:09:46;;;;;;;10.13;7.38;;;11.30;99.90;;;;;;6101062;23;20055;-92
2021/12/25 16:12:12;;;;;;;8.50;6.57;;;11.30;99.90;;;;;;6127563;23;20010;-95
2021/12/25 16:14:38;;;;;;;7.82;6.97;;;11.20;99.90;;;;;;6127480;23;20006;-94
2021/12/25 16:17:04;;;;;;;12.35;9.65;;;11.10;99.90;;;;;;6126083;23;20089;-96
2021/12/25 16:19:35;;;;;;;11.70;7.78;;;11.10;99.90;;;;;;6109244;23;20025;-96
2021/12/25 16:22:04;;;;;;;8.32;7.18;;;11.10;99.90;;;;;;6102622;23;20070;-91
2021/12/25 16:24:29;;;;;;;9.30;8.05;;;11.00;99.90;;;;;;6126114;23;20002;-92
2021/12/25 16:26:55;;;;;;;7.57;6.78;;;10.80;99.90;;;;;;6100038;23;20058;-91
2021/12/25 16:29:22;;;;;;;9.60;7.63;;;10.80;99.90;;;;;;6100543;23;20345;-93
2021/12/25 16:31:49;;;;;;;11.18;8.13;;;10.70;99.90;;;;;;6126502;23;20030;-89
2021/12/25 16:34:16;;;;;;;13.65;9.98;;;10.60;99.90;;;;;;6126598;23;20006;-88
2021/12/25 16:36:42;;;;;;;15.68;11.05;;;10.60;99.90;;;;;;6101749;23;20006;-95
2021/12/25 16:39:12;;;;;;;13.02;9.93;;;10.40;99.90;;;;;;6099836;23;20030;-88
2021/12/25 16:41:40;;;;;;;11.15;9.45;;;10.40;99.90;;;;;;6125601;23;20325;-91
2021/12/25 16:44:08;;;;;;;11.40;8.73;;;10.40;99.90;;;;;;6098862;23;20010;-85
2021/12/25 16:46:33;;;;;;;10.35;9.05;;;10.40;99.90;;;;;;6124226;23;20006;-84
2021/12/25 16:48:59;;;;;;;11.68;9.48;;;10.40;99.90;;;;;;6124354;23;20512;-86
2021/12/25 16:51:25;;;;;;;12.43;9.43;;;10.20;99.90;;;;;;6124223;23;20374;-85
2021/12/25 16:53:51;;;;;;;11.25;9.30;;;10.30;99.90;;;;;;6124328;23;20062;-89
2021/12/25 16:56:17;;;;;;;11.00;9.02;;;10.20;99.90;;;;;;6098892;23;20002;-96
2021/12/25 16:58:43;;;;;;;11.90;9.27;;;10.20;99.90;;;;;;6099314;23;20393;-92
2021/12/25 17:01:08;;;;;;;13.98;9.73;;;10.20;99.90;;;;;;6126110;23;20062;-92
2021/12/25 17:03:34;;;;;;;11.63;9.15;;;9.90;99.90;;;;;;6099982;23;20380;-88
2021/12/25 17:06:00;;;;;;;12.02;10.05;;;10.10;99.90;;;;;;6128010;23;20029;-95
2021/12/25 17:08:26;;;;;;;12.35;10.05;;;9.80;99.90;;;;;;6103260;23;20005;-93
2021/12/25 17:10:52;;;;;;;13.40;9.70;;;9.80;99.90;;;;;;6102840;23;20408;-88
2021/12/25 17:13:18;;;;;;;11.90;9.75;;;9.70;99.90;;;;;;6125997;23;20512;-93
2021/12/25 17:15:48;;;;;;;13.40;10.05;;;9.60;99.90;;;;;;6099031;23;20029;-88
2021/12/25 17:18:15;;;;;;;13.18;9.88;;;9.70;99.90;;;;;;6126000;23;20064;-90
2021/12/25 17:20:46;;;;;;;12.40;9.73;;;10.00;99.90;;;;;;6099780;23;20002;-87
2021/12/25 17:23:12;;;;;;;14.00;10.18;;;10.10;99.90;;;;;;6126416;23;20010;-95
2021/12/25 17:25:39;;;;;;;13.07;10.13;;;9.70;99.90;;;;;;6127426;23;20464;-93
2021/12/25 17:28:08;;;;;;;13.20;10.27;;;9.80;99.90;;;;;;6126428;23;20036;-96
2021/12/25 17:30:44;;;;;;;11.52;9.50;;;9.70;99.90;;;;;;6128231;23;20010;-92
2021/12/25 17:33:10;;;;;;;11.23;9.27;;;9.70;99.90;;;;;;6125741;23;20010;-91
2021/12/25 17:35:36;;;;;;;12.93;10.48;;;10.10;99.90;;;;;;6099145;23;20309;-91
2021/12/25 17:38:02;;;;;;;12.65;9.52;;;9.60;99.90;;;;;;6125352;23;20017;-93
2021/12/25 17:40:33;;;;;;;11.05;9.65;;;9.50;99.90;;;;;;6124578;23;20081;-84
2021/12/25 17:43:00;;;;;;;11.10;9.52;;;9.50;99.90;;;;;;6124830;23;20034;-86
2021/12/25 17:45:25;;;;;;;13.32;9.57;;;10.00;99.90;;;;;;6124432;23;20006;-88
2021/12/25 17:47:53;;;;;;;12.07;10.23;;;9.70;99.90;;;;;;6124484;23;20084;-84
2021/12/25 17:50:25;;;;;;;13.63;11.50;;;10.10;99.90;;;;;;6124613;23;20004;-85
2021/12/25 17:52:50;;;;;;;12.32;10.23;;;9.60;99.90;;;;;;6125020;23;20009;-85
2021/12/25 17:55:17;;;;;;;11.93;9.93;;;9.60;99.90;;;;;;6124134;23;20002;-86
2021/12/25 17:57:43;;;;;;;12.98;10.90;;;9.70;99.90;;;;;;6124731;23;20014;-88
2021/12/25 18:00:14;;;;;;;11.77;10.15;;;9.60;99.90;;;;;;6124822;23;20369;-87
2021/12/25 18:02:39;;;;;;;11.88;10.13;;;9.60;99.90;;;;;;6124367;23;20006;-87
2021/12/25 18:05:07;;;;;;;13.40;10.88;;;9.80;99.90;;;;;;6124089;23;20393;-87
2021/12/25 18:07:33;;;;;;;13.75;11.00;;;9.50;99.90;;;;;;6124300;23;20050;-87
2021/12/25 18:09:59;;;;;;;12.88;10.75;;;9.70;99.90;;;;;;6125179;23;20002;-91
